Time;durP1;ratioP1;P1;durP2;ratioP2;P2;SDS_P1;SDS_P2;PMS_P1;PMS_P2;Temp;Humidity;BMP_temperature;BMP_pressure;BME280_temperature;BME280_humidity;BME280_pressure;Samples;Min_cycle;Max_cycle;Signal;HPM_P1;HPM_P2
2022/12/24 00:02:10;;;;;;;11.05;5.97;;;;;;;7.20;100.00;97629.84;4997400;28;20120;-78
2022/12/24 00:04:36;;;;;;;13.88;5.82;;;;;;;7.39;100.00;97640.81;5001542;28;20030;-77
2022/12/24 00:07:01;;;;;;;13.20;5.55;;;;;;;7.41;100.00;97641.34;4998986;28;20472;-78
2022/12/24 00:09:26;;;;;;;14.95;5.53;;;;;;;7.47;100.00;97646.44;4998636;28;20085;-78
2022/12/24 00:11:51;;;;;;;16.35;5.90;;;;;;;7.36;100.00;97646.66;5013816;28;20026;-78
2022/12/24 00:14:17;;;;;;;12.60;5.32;;;;;;;7.28;100.00;97657.72;5014353;28;20041;-78
2022/12/24 00:16:42;;;;;;;17.75;6.18;;;;;;;7.35;100.00;97655.66;4997498;28;20026;-78
2022/12/24 00:19:07;;;;;;;9.80;5.35;;;;;;;7.27;100.00;97658.81;4997267;28;20041;-79
2022/12/24 00:21:33;;;;;;;12.68;7.20;;;;;;;7.23;100.00;97657.72;4995549;28;20030;-78
2022/12/24 00:23:58;;;;;;;17.20;4.85;;;;;;;7.16;100.00;97660.59;4996788;28;20069;-79
2022/12/24 00:26:23;;;;;;;7.43;5.35;;;;;;;7.17;100.00;97664.03;4994117;28;20041;-78
2022/12/24 00:28:49;;;;;;;12.25;6.30;;;;;;;7.25;100.00;97666.22;4989040;28;20080;-79
2022/12/24 00:31:17;;;;;;;10.43;5.28;;;;;;;7.25;100.00;97663.56;4994449;28;20035;-79
2022/12/24 00:33:44;;;;;;;13.02;5.20;;;;;;;7.13;100.00;97662.94;4996934;28;20038;-78
2022/12/24 00:36:09;;;;;;;11.05;5.22;;;;;;;7.19;100.00;97669.88;4996667;28;20030;-78
2022/12/24 00:38:34;;;;;;;14.68;5.10;;;;;;;7.29;100.00;97670.78;4992881;28;20030;-77
2022/12/24 00:41:02;;;;;;;18.08;5.78;;;;;;;7.18;100.00;97676.25;4996402;28;20042;-81
2022/12/24 00:43:28;;;;;;;15.98;6.57;;;;;;;7.25;100.00;97679.50;4995736;28;20058;-78
2022/12/24 00:45:54;;;;;;;15.68;5.75;;;;;;;7.14;100.00;97675.94;4996912;28;20061;-78
2022/12/24 00:48:19;;;;;;;13.70;5.20;;;;;;;7.15;100.00;97676.75;4993824;28;20596;-78
2022/12/24 00:50:45;;;;;;;10.05;5.65;;;;;;;7.09;100.00;97675.94;4996411;28;20030;-78
2022/12/24 00:53:10;;;;;;;12.32;4.97;;;;;;;7.14;100.00;97675.94;4995311;28;20038;-78
2022/12/24 00:55:35;;;;;;;12.15;4.80;;;;;;;7.24;100.00;97689.31;4995386;28;20125;-78
2022/12/24 00:58:01;;;;;;;15.65;4.10;;;;;;;7.13;100.00;97689.47;5010615;28;20483;-78
2022/12/24 01:00:26;;;;;;;9.77;4.20;;;;;;;7.14;100.00;97696.41;4994554;28;20433;-79
2022/12/24 01:02:51;;;;;;;9.65;4.82;;;;;;;7.15;100.00;97703.28;4995259;28;20058;-78
2022/12/24 01:05:19;;;;;;;12.25;4.13;;;;;;;7.10;100.00;97696.09;4998178;28;20030;-78
2022/12/24 01:07:45;;;;;;;6.75;4.40;;;;;;;7.16;100.00;97702.25;4994759;28;20109;-79
2022/12/24 01:10:14;;;;;;;8.48;4.03;;;;;;;7.21;100.00;97711.03;4993813;28;20108;-78
2022/12/24 01:12:40;;;;;;;13.70;4.90;;;;;;;7.19;100.00;97718.44;5006618;28;20115;-77
2022/12/24 01:15:07;;;;;;;7.88;3.67;;;;;;;7.10;100.00;97722.63;4996817;28;20459;-77
2022/12/24 01:17:34;;;;;;;9.70;4.00;;;;;;;7.16;100.00;97729.59;5008057;28;20634;-77
2022/12/24 01:20:00;;;;;;;12.30;3.88;;;;;;;7.10;100.00;97721.84;4996756;28;20030;-78
2022/12/24 01:22:25;;;;;;;9.27;3.85;;;;;;;7.13;100.00;97731.94;4998270;28;20049;-78
2022/12/24 01:24:50;;;;;;;8.25;3.60;;;;;;;7.07;100.00;97740.91;4997025;28;20057;-78
2022/12/24 01:27:16;;;;;;;11.77;5.28;;;;;;;7.14;100.00;97757.44;4995117;28;20030;-78
2022/12/24 01:29:41;;;;;;;10.35;4.13;;;;;;;7.16;100.00;97744.69;4996969;28;20041;-78
2022/12/24 01:32:06;;;;;;;12.02;4.68;;;;;;;7.16;100.00;97745.50;4996892;28;20479;-77
2022/12/24 01:34:32;;;;;;;9.07;3.55;;;;;;;7.11;100.00;97745.47;4997091;28;20026;-78
2022/12/24 01:36:57;;;;;;;10.68;5.30;;;;;;;7.09;100.00;97760.84;4997111;28;20030;-77
2022/12/24 01:39:22;;;;;;;9.02;4.95;;;;;;;7.19;100.00;97763.56;4995714;28;20415;-78
2022/12/24 01:44:34;;;;;;;8.98;4.15;;;;;;;7.12;100.00;97768.28;4997628;28;20494;-77
2022/12/24 01:47:07;;;;;;;6.47;3.70;;;;;;;7.06;100.00;97771.94;5011912;28;20026;-78
2022/12/24 01:49:32;;;;;;;7.07;3.50;;;;;;;6.98;100.00;97774.25;4997936;28;20037;-77
2022/12/24 01:52:04;;;;;;;14.25;4.20;;;;;;;6.97;100.00;97785.94;4997647;28;20026;-78
2022/12/24 01:54:33;;;;;;;7.20;3.40;;;;;;;7.01;100.00;97779.06;4997317;28;20494;-78
2022/12/24 01:57:03;;;;;;;8.38;3.75;;;;;;;7.01;100.00;97787.78;4995987;28;20022;-78
2022/12/24 01:59:29;;;;;;;6.47;3.95;;;;;;;6.98;100.00;97782.22;4979078;28;20030;-78
2022/12/24 02:01:54;;;;;;;10.68;4.13;;;;;;;7.07;100.00;97793.97;4995952;28;20028;-78
2022/12/24 02:04:55;;;;;;;10.18;3.53;;;;;;;7.18;99.93;97807.09;4995919;28;20049;-78
2022/12/24 02:07:20;;;;;;;13.38;3.45;;;;;;;7.06;100.00;97811.72;5009397;28;20034;-77
2022/12/24 02:09:48;;;;;;;9.27;3.60;;;;;;;7.09;100.00;97815.75;4995401;28;20053;-78
2022/12/24 02:12:14;;;;;;;11.82;3.70;;;;;;;7.02;100.00;97815.13;4995703;28;20022;-78
2022/12/24 02:14:39;;;;;;;7.88;3.13;;;;;;;7.04;100.00;97813.84;4978146;28;20080;-78
2022/12/24 02:17:21;;;;;;;8.20;3.78;;;;;;;7.06;99.82;97818.88;4995175;28;20034;-78
2022/12/24 02:19:52;;;;;;;9.50;3.70;;;;;;;6.97;100.00;97823.84;4995341;28;20026;-78
2022/12/24 02:22:36;;;;;;;11.65;2.95;;;;;;;6.97;100.00;97839.75;4995154;28;20022;-78
2022/12/24 02:25:12;;;;;;;10.05;3.00;;;;;;;6.94;100.00;97842.13;4995089;28;20064;-78
2022/12/24 02:28:05;;;;;;;6.38;4.03;;;;;;;6.97;100.00;97853.03;4988503;28;20026;-78
2022/12/24 02:30:53;;;;;;;9.68;3.35;;;;;;;6.90;99.73;97857.75;4995759;28;20026;-77
2022/12/24 02:33:21;;;;;;;7.75;3.15;;;;;;;6.93;100.00;97859.06;4996123;28;20069;-77
2022/12/24 02:36:25;;;;;;;12.63;3.55;;;;;;;7.00;100.00;97865.78;5009793;28;20022;-77
2022/12/24 02:39:07;;;;;;;8.90;3.38;;;;;;;6.95;100.00;97863.09;4895461;29;20556;-78
2022/12/24 02:44:27;;;;;;;8.70;2.30;;;;;;;6.92;99.24;97868.91;4995053;28;20113;-77
2022/12/24 02:46:54;;;;;;;7.47;2.42;;;;;;;6.82;99.88;97876.72;5009222;28;20098;-78
2022/12/24 02:49:19;;;;;;;12.10;3.22;;;;;;;6.84;100.00;97865.91;4994850;28;20026;-78
2022/12/24 02:51:45;;;;;;;8.80;2.83;;;;;;;6.86;100.00;97880.47;4993575;28;20058;-78
2022/12/24 02:54:11;;;;;;;4.10;2.83;;;;;;;6.97;99.59;97882.19;4977647;28;20038;-77
2022/12/24 02:56:51;;;;;;;11.20;3.17;;;;;;;6.90;99.56;97881.63;4994573;28;20038;-77
2022/12/24 02:59:55;;;;;;;11.25;3.85;;;;;;;6.89;100.00;97885.31;4994618;28;20093;-78
2022/12/24 03:02:39;;;;;;;10.05;3.20;;;;;;;6.95;100.00;97891.44;4972096;28;20073;-78
2022/12/24 03:05:24;;;;;;;9.60;2.95;;;;;;;6.79;99.93;97895.81;4990611;28;20027;-78
2022/12/24 03:08:19;;;;;;;8.93;4.30;;;;;;;6.83;100.00;97902.22;4975174;28;20260;-78
2022/12/24 03:10:56;;;;;;;16.65;5.47;;;;;;;6.79;100.00;97903.75;4972472;28;20054;-78
2022/12/24 03:13:23;;;;;;;14.13;4.30;;;;;;;6.85;100.00;97909.91;5061802;23;20052;-79
2022/12/24 03:15:50;;;;;;;8.32;3.92;;;;;;;6.87;100.00;97913.94;5049350;28;20043;-79
2022/12/24 03:18:19;;;;;;;23.05;5.35;;;;;;;6.90;100.00;97923.25;5051009;28;20040;-79
2022/12/24 03:20:51;;;;;;;10.45;3.97;;;;;;;6.90;100.00;97934.66;5050720;28;20033;-79
2022/12/24 03:23:17;;;;;;;11.35;3.75;;;;;;;6.89;99.91;97942.84;5051274;28;20029;-79
2022/12/24 03:25:44;;;;;;;16.65;3.85;;;;;;;6.85;99.46;97937.25;5033509;28;20537;-79
2022/12/24 03:28:12;;;;;;;25.05;4.97;;;;;;;6.90;99.73;97947.94;5050996;28;20028;-79
2022/12/24 03:30:40;;;;;;;15.45;5.40;;;;;;;6.80;100.00;97953.09;5051723;28;20464;-79
2022/12/24 03:33:06;;;;;;;11.18;4.70;;;;;;;6.80;100.00;97958.38;5049660;28;20029;-80
2022/12/24 03:35:31;;;;;;;9.63;4.72;;;;;;;6.77;100.00;97964.19;5051248;28;20403;-80
2022/12/24 03:37:56;;;;;;;12.75;4.80;;;;;;;6.73;99.69;97969.16;5049647;28;20029;-80
2022/12/24 03:40:22;;;;;;;18.33;5.10;;;;;;;6.66;99.73;97965.88;5050056;28;20041;-79
2022/12/24 03:42:47;;;;;;;15.82;5.35;;;;;;;6.74;99.99;97973.44;5051151;28;20033;-79
2022/12/24 03:45:12;;;;;;;17.10;6.07;;;;;;;6.70;99.58;97968.88;5033452;28;20496;-79
2022/12/24 03:47:38;;;;;;;13.90;4.57;;;;;;;6.70;99.33;97963.56;5033110;28;20354;-79
2022/12/24 03:50:04;;;;;;;13.65;4.65;;;;;;;6.65;98.95;97966.16;5046918;28;20488;-79
2022/12/24 03:52:29;;;;;;;15.43;5.60;;;;;;;6.69;99.22;97967.25;5041008;28;20025;-79
2022/12/24 03:54:54;;;;;;;20.33;6.47;;;;;;;6.74;99.00;97978.75;5036786;28;20102;-79
2022/12/24 03:57:20;;;;;;;21.08;6.03;;;;;;;6.63;98.54;97971.69;5054810;28;20389;-79
2022/12/24 03:59:45;;;;;;;21.85;3.20;;;;;;;6.68;98.85;97974.41;5053045;28;20112;-81
2022/12/24 04:02:11;;;;;;;20.17;5.88;;;;;;;6.61;99.42;97978.28;5054545;28;20033;-80
2022/12/24 04:04:36;;;;;;;17.52;4.88;;;;;;;6.70;98.90;97977.63;5054749;28;20035;-79
2022/12/24 04:07:03;;;;;;;15.80;5.07;;;;;;;6.65;98.88;97977.56;5053109;28;20029;-78
2022/12/24 04:09:28;;;;;;;16.45;5.55;;;;;;;6.64;99.83;97983.88;5054417;28;20421;-81
2022/12/24 04:11:53;;;;;;;19.73;5.78;;;;;;;6.48;99.02;97955.59;5020127;28;20063;-81
2022/12/24 04:14:19;;;;;;;20.55;5.43;;;;;;;6.68;98.67;97984.22;5034818;28;20052;-82
2022/12/24 04:16:44;;;;;;;16.75;6.10;;;;;;;6.61;99.07;97970.34;5052825;28;20021;-80
2022/12/24 04:19:09;;;;;;;20.27;5.55;;;;;;;6.76;98.83;97975.84;5053485;28;20033;-81
2022/12/24 04:21:35;;;;;;;18.48;6.30;;;;;;;6.69;99.62;97981.31;5053728;28;20087;-82
2022/12/24 04:24:00;;;;;;;11.05;4.43;;;;;;;6.61;99.26;97973.78;5054651;28;20112;-81
2022/12/24 04:26:26;;;;;;;17.05;4.93;;;;;;;6.65;98.97;97979.41;5053443;28;20468;-80
2022/12/24 04:28:52;;;;;;;25.40;6.25;;;;;;;6.60;98.11;97987.28;5020168;28;20464;-81
2022/12/24 04:31:17;;;;;;;17.50;6.93;;;;;;;6.55;98.75;97989.88;5034815;28;20033;-80
2022/12/24 04:33:45;;;;;;;32.80;6.95;;;;;;;6.55;98.68;97984.56;5054224;28;20021;-80
2022/12/24 04:36:16;;;;;;;25.45;6.75;;;;;;;6.59;98.45;97998.94;5054533;28;20024;-80
2022/12/24 04:38:41;;;;;;;18.52;4.20;;;;;;;6.49;99.01;98002.22;5054268;28;20028;-80
2022/12/24 04:41:21;;;;;;;17.73;5.22;;;;;;;6.49;99.25;98010.19;5054533;28;20047;-81
2022/12/24 04:43:47;;;;;;;13.60;5.30;;;;;;;6.40;99.52;97998.38;5054354;28;20040;-80
2022/12/24 04:46:17;;;;;;;21.23;4.93;;;;;;;6.46;98.86;98004.56;5053562;28;20020;-80
2022/12/24 04:48:43;;;;;;;18.65;6.25;;;;;;;6.43;99.23;98020.97;5052902;28;20078;-80
2022/12/24 04:51:09;;;;;;;28.92;6.20;;;;;;;6.42;98.55;98012.19;5052960;28;20040;-80
2022/12/24 04:53:37;;;;;;;22.23;5.97;;;;;;;6.43;98.49;98023.59;5053187;28;20029;-80
2022/12/24 04:56:03;;;;;;;15.60;4.80;;;;;;;6.32;99.00;98019.19;5052667;28;20048;-80
2022/12/24 04:58:29;;;;;;;19.17;5.45;;;;;;;6.37;99.17;98016.63;5052790;28;20423;-80
2022/12/24 05:00:54;;;;;;;26.80;7.55;;;;;;;6.45;97.90;98018.88;5052914;28;20059;-80
2022/12/24 05:03:19;;;;;;;17.40;5.20;;;;;;;6.43;98.57;98027.06;5052184;28;20037;-81
2022/12/24 05:05:45;;;;;;;19.58;5.47;;;;;;;6.30;98.19;98022.09;5053101;28;20039;-81
2022/12/24 05:08:11;;;;;;;17.80;6.22;;;;;;;6.32;98.57;98043.84;5027414;28;20481;-81
2022/12/24 05:10:36;;;;;;;19.02;4.65;;;;;;;6.29;98.90;98048.84;5035801;28;20056;-81
2022/12/24 05:13:02;;;;;;;20.55;6.90;;;;;;;6.28;98.98;98060.47;5054054;28;20039;-81
2022/12/24 05:15:27;;;;;;;19.80;6.45;;;;;;;6.31;98.61;98057.34;5036161;28;20040;-80
2022/12/24 05:17:53;;;;;;;14.95;5.55;;;;;;;6.26;98.57;98051.97;5053734;28;20029;-80
2022/12/24 05:20:18;;;;;;;15.70;5.70;;;;;;;6.23;98.78;98066.47;5035896;28;20049;-80
2022/12/24 05:28:17;;;;;;;23.52;6.70;;;;;;;6.31;98.25;98074.03;5053140;28;20507;-80
2022/12/24 05:30:42;;;;;;;21.05;5.50;;;;;;;6.26;97.86;98081.09;5052236;28;20241;-80
2022/12/24 05:33:08;;;;;;;34.35;6.30;;;;;;;6.33;98.35;98087.06;5047517;28;20033;-80
2022/12/24 05:35:33;;;;;;;32.28;6.78;;;;;;;6.25;97.96;98082.94;5051786;28;20029;-80
2022/12/24 05:37:59;;;;;;;15.23;7.18;;;;;;;6.17;99.22;98086.00;5053045;28;20090;-80
2022/12/24 05:40:24;;;;;;;33.90;7.20;;;;;;;6.21;98.14;98083.66;5051511;28;20408;-80
2022/12/24 05:42:50;;;;;;;25.05;6.50;;;;;;;6.14;98.15;98088.31;5052770;28;20029;-80
2022/12/24 05:45:15;;;;;;;16.77;6.35;;;;;;;6.17;97.84;98099.25;5035156;28;20488;-80
2022/12/24 05:47:41;;;;;;;17.70;5.05;;;;;;;6.11;98.06;98094.91;5050429;28;20025;-80
2022/12/24 05:50:07;;;;;;;21.17;6.50;;;;;;;6.13;98.78;98092.00;5051504;28;20393;-80
2022/12/24 05:52:32;;;;;;;22.63;6.15;;;;;;;6.15;98.03;98090.72;5051463;28;20085;-80
2022/12/24 05:54:58;;;;;;;24.48;6.65;;;;;;;6.09;98.73;98096.19;5051389;28;20545;-82
2022/12/24 05:57:23;;;;;;;16.77;5.93;;;;;;;6.06;97.66;98097.44;5034006;28;20558;-80
2022/12/24 05:59:48;;;;;;;12.10;4.35;;;;;;;6.10;98.45;98098.56;5051323;28;20587;-80
2022/12/24 06:02:14;;;;;;;27.42;7.95;;;;;;;6.17;98.10;98101.88;5052349;28;20029;-80
2022/12/24 06:04:39;;;;;;;23.58;9.15;;;;;;;6.10;97.53;98093.28;5050050;28;20028;-80
2022/12/24 06:07:04;;;;;;;28.92;8.95;;;;;;;5.99;97.45;98096.78;5052172;28;20052;-80
2022/12/24 06:09:30;;;;;;;27.95;8.43;;;;;;;6.04;98.37;98096.88;5050994;28;20139;-80
2022/12/24 06:11:55;;;;;;;26.63;7.13;;;;;;;6.07;98.16;98111.50;5051111;28;20423;-80
2022/12/24 06:14:20;;;;;;;23.30;6.88;;;;;;;6.09;97.90;98120.00;5049987;28;20147;-80
2022/12/24 06:16:46;;;;;;;21.88;7.05;;;;;;;6.04;97.97;98124.19;5051702;28;20029;-80
2022/12/24 06:19:11;;;;;;;24.67;6.47;;;;;;;6.04;98.10;98116.25;5051860;28;20029;-80
2022/12/24 06:21:37;;;;;;;27.13;6.88;;;;;;;6.09;97.67;98125.31;5050224;28;20473;-80
2022/12/24 06:24:02;;;;;;;27.88;8.02;;;;;;;6.19;97.53;98125.50;5034532;28;20457;-80
2022/12/24 06:26:28;;;;;;;23.67;6.25;;;;;;;5.95;97.19;98112.34;5051538;28;20029;-80
2022/12/24 06:28:53;;;;;;;26.05;7.18;;;;;;;6.02;97.84;98113.03;5052543;28;20081;-80
2022/12/24 06:31:20;;;;;;;26.73;6.45;;;;;;;5.96;98.30;98123.75;5033861;28;20060;-80
2022/12/24 06:33:46;;;;;;;29.65;7.43;;;;;;;6.03;97.96;98111.16;5050819;28;20384;-81
2022/12/24 06:36:18;;;;;;;21.52;7.28;;;;;;;6.03;97.72;98111.97;5052523;28;20112;-81
2022/12/24 06:38:44;;;;;;;25.73;7.35;;;;;;;6.17;97.66;98122.28;5049295;28;20036;-81
2022/12/24 06:41:10;;;;;;;31.63;8.73;;;;;;;6.18;97.59;98134.50;5052062;28;20033;-81
2022/12/24 06:43:35;;;;;;;23.10;7.38;;;;;;;6.12;97.49;98130.13;5051734;28;20393;-81
2022/12/24 06:46:02;;;;;;;20.95;8.10;;;;;;;6.17;97.20;98120.44;5052181;28;20028;-81
2022/12/24 06:48:27;;;;;;;26.25;7.20;;;;;;;6.24;97.01;98126.41;5051117;28;20111;-80
2022/12/24 06:50:53;;;;;;;15.82;6.63;;;;;;;6.16;97.01;98139.22;5052252;28;20064;-81
2022/12/24 06:53:18;;;;;;;18.20;7.43;;;;;;;6.03;97.68;98135.00;5034324;28;20025;-80
2022/12/24 06:55:43;;;;;;;21.48;8.32;;;;;;;6.07;97.94;98153.88;5050720;28;20104;-80
2022/12/24 06:58:09;;;;;;;18.98;6.95;;;;;;;6.04;98.42;98150.66;5049795;28;20037;-80
2022/12/24 07:00:35;;;;;;;27.27;6.85;;;;;;;6.15;97.74;98156.16;5050225;28;20025;-80
2022/12/24 07:03:00;;;;;;;28.90;7.97;;;;;;;6.13;97.50;98169.63;5050131;28;20065;-80
2022/12/24 07:05:25;;;;;;;22.60;7.97;;;;;;;6.09;97.89;98146.50;5050524;28;20021;-80
2022/12/24 07:07:51;;;;;;;17.38;7.53;;;;;;;6.25;97.00;98167.72;5033588;28;20549;-80
2022/12/24 07:10:17;;;;;;;21.52;7.13;;;;;;;6.40;96.73;98170.66;5051120;28;20384;-80
2022/12/24 07:12:43;;;;;;;28.08;6.88;;;;;;;6.50;96.36;98167.41;5047543;28;20021;-80
2022/12/24 07:15:13;;;;;;;21.20;7.40;;;;;;;6.58;95.53;98170.47;5048918;28;20020;-80
2022/12/24 07:17:39;;;;;;;23.58;7.70;;;;;;;6.47;95.61;98163.38;5050954;28;20029;-80
2022/12/24 07:20:06;;;;;;;32.15;7.10;;;;;;;6.53;96.18;98169.56;5050929;28;20385;-80
2022/12/24 07:22:32;;;;;;;26.75;6.25;;;;;;;6.45;95.69;98169.94;5033021;28;20175;-80
2022/12/24 07:24:57;;;;;;;17.02;5.88;;;;;;;6.52;96.40;98181.22;5050903;28;20052;-81
2022/12/24 07:27:23;;;;;;;20.67;6.55;;;;;;;6.73;96.21;98193.75;5035452;28;20024;-80
2022/12/24 07:29:48;;;;;;;24.98;6.32;;;;;;;6.59;95.64;98189.81;5052625;28;20481;-80
2022/12/24 07:32:14;;;;;;;14.77;5.32;;;;;;;6.55;95.47;98180.75;5017235;28;20512;-80
2022/12/24 07:34:39;;;;;;;13.02;4.68;;;;;;;6.62;96.17;98213.19;5034908;28;20045;-80
2022/12/24 07:37:06;;;;;;;24.05;5.95;;;;;;;6.44;95.94;98203.63;5016816;28;20116;-80
2022/12/24 07:39:31;;;;;;;14.35;5.90;;;;;;;6.75;95.90;98210.25;5050303;28;20509;-80
2022/12/24 07:41:56;;;;;;;17.35;5.45;;;;;;;6.57;95.30;98216.59;5033197;28;20037;-80
2022/12/24 07:44:22;;;;;;;19.20;5.90;;;;;;;6.50;95.58;98217.75;5026244;28;20590;-80
2022/12/24 07:46:47;;;;;;;16.88;6.18;;;;;;;6.33;96.85;98222.22;5051541;28;20040;-80
2022/12/24 07:49:12;;;;;;;15.43;5.35;;;;;;;6.30;97.43;98225.31;5053060;28;20032;-80
2022/12/24 07:51:38;;;;;;;15.18;5.00;;;;;;;6.36;97.03;98216.41;5055196;28;20021;-80
2022/12/24 07:54:03;;;;;;;17.33;4.20;;;;;;;6.30;97.18;98226.13;5037528;28;20079;-80
2022/12/24 07:56:30;;;;;;;23.52;7.28;;;;;;;6.17;97.36;98226.41;5055035;28;20040;-80
2022/12/24 07:58:56;;;;;;;17.33;6.47;;;;;;;6.19;97.39;98231.47;5053500;28;20481;-80
2022/12/24 08:01:21;;;;;;;16.52;4.50;;;;;;;6.19;98.31;98239.41;5036736;28;20021;-82
2022/12/24 08:03:47;;;;;;;24.55;5.18;;;;;;;6.23;98.42;98240.56;5053437;28;20043;-80
2022/12/24 08:06:12;;;;;;;11.43;5.10;;;;;;;6.15;98.08;98238.28;5053453;28;20037;-80
2022/12/24 08:08:37;;;;;;;24.45;5.28;;;;;;;6.17;98.22;98236.19;5036634;28;20033;-80
2022/12/24 08:11:05;;;;;;;18.80;4.70;;;;;;;6.29;97.69;98243.06;5020345;28;20024;-80
2022/12/24 08:13:31;;;;;;;15.73;4.63;;;;;;;6.30;97.64;98244.69;5053129;28;20071;-80
2022/12/24 08:15:57;;;;;;;20.13;6.25;;;;;;;6.41;96.99;98253.63;5052106;28;20036;-80
2022/12/24 08:18:23;;;;;;;14.55;4.60;;;;;;;6.46;97.31;98240.47;5069681;28;20033;-81
2022/12/24 08:20:48;;;;;;;21.05;5.55;;;;;;;6.60;96.86;98247.91;5055816;28;20033;-80
2022/12/24 08:23:14;;;;;;;22.30;4.40;;;;;;;6.39;97.17;98258.38;5054086;28;20029;-80
2022/12/24 08:25:44;;;;;;;17.55;6.18;;;;;;;6.47;97.10;98242.88;5054599;28;20511;-81
2022/12/24 08:28:10;;;;;;;23.40;5.35;;;;;;;6.48;96.63;98259.59;5053706;28;20702;-81
2022/12/24 08:30:36;;;;;;;11.05;5.03;;;;;;;6.50;97.30;98268.13;5055581;28;20048;-80
2022/12/24 08:33:01;;;;;;;20.38;8.52;;;;;;;6.41;97.60;98266.88;5053049;28;20083;-81
2022/12/24 08:35:27;;;;;;;17.08;5.28;;;;;;;6.41;97.35;98258.94;5036829;28;20482;-80
2022/12/24 08:37:52;;;;;;;17.98;5.85;;;;;;;6.48;98.01;98262.25;5053854;28;20021;-80
2022/12/24 08:40:18;;;;;;;16.95;4.72;;;;;;;6.42;97.90;98266.63;5053954;28;20035;-80
2022/12/24 08:42:43;;;;;;;16.75;5.30;;;;;;;6.38;98.12;98259.41;5054790;28;20037;-81
2022/12/24 08:45:10;;;;;;;11.55;4.13;;;;;;;6.32;98.35;98260.34;5036690;28;20033;-82
2022/12/24 08:47:36;;;;;;;17.35;5.35;;;;;;;6.31;97.98;98258.75;5020001;28;20056;-82
2022/12/24 08:50:02;;;;;;;12.82;4.35;;;;;;;6.42;98.10;98276.47;5052154;28;20029;-81
2022/12/24 08:52:27;;;;;;;15.27;6.55;;;;;;;6.46;98.55;98283.72;5053399;28;20025;-82
2022/12/24 08:54:53;;;;;;;20.35;5.90;;;;;;;6.47;97.83;98284.50;5054428;28;20170;-81
2022/12/24 08:57:19;;;;;;;9.68;4.78;;;;;;;6.70;97.67;98295.84;5035283;28;20033;-81
2022/12/24 08:59:44;;;;;;;9.68;4.40;;;;;;;6.67;97.00;98293.66;5053349;28;20025;-81
2022/12/24 09:02:09;;;;;;;12.23;5.20;;;;;;;6.62;97.29;98308.66;5054041;28;20037;-80
2022/12/24 09:04:39;;;;;;;7.80;4.50;;;;;;;6.75;97.12;98295.91;5020432;28;20115;-80
2022/12/24 09:07:06;;;;;;;13.57;5.30;;;;;;;6.67;97.84;98300.78;5052681;28;20064;-81
2022/12/24 09:09:32;;;;;;;20.15;6.72;;;;;;;6.67;97.10;98300.78;5053907;28;20380;-80
2022/12/24 09:11:57;;;;;;;11.30;5.78;;;;;;;6.66;97.54;98305.28;5051996;28;20108;-80
2022/12/24 09:14:24;;;;;;;17.60;5.38;;;;;;;6.66;97.51;98310.59;5052998;28;20107;-80
2022/12/24 09:16:49;;;;;;;13.30;6.40;;;;;;;6.72;97.31;98307.00;5051813;28;20031;-80
2022/12/24 09:19:15;;;;;;;10.80;6.10;;;;;;;6.75;97.57;98308.34;5036336;28;20028;-80
2022/12/24 09:21:40;;;;;;;16.70;6.32;;;;;;;6.66;97.79;98326.50;5053856;28;20086;-80
2022/12/24 09:24:06;;;;;;;15.30;6.72;;;;;;;6.71;97.61;98331.91;5052185;28;20032;-80
2022/12/24 09:26:31;;;;;;;14.90;8.60;;;;;;;6.79;97.73;98333.41;5053172;28;20658;-82
2022/12/24 09:28:59;;;;;;;16.50;8.93;;;;;;;6.76;97.59;98328.56;5051285;28;20074;-80
2022/12/24 09:31:25;;;;;;;14.70;6.55;;;;;;;6.89;97.27;98349.50;5052118;28;20488;-81
2022/12/24 09:33:51;;;;;;;16.17;7.63;;;;;;;6.91;96.66;98341.28;5053102;28;20032;-81
2022/12/24 09:36:17;;;;;;;16.65;5.97;;;;;;;6.82;97.61;98346.97;5053665;28;20029;-81
2022/12/24 09:38:43;;;;;;;9.52;6.72;;;;;;;6.98;98.08;98344.59;5053003;28;20037;-81
2022/12/24 09:41:14;;;;;;;11.68;6.82;;;;;;;7.00;97.09;98363.75;5035466;28;20036;-81
2022/12/24 09:43:46;;;;;;;19.08;6.32;;;;;;;7.04;97.75;98362.22;5052234;28;20037;-81
2022/12/24 09:46:29;;;;;;;12.07;5.85;;;;;;;7.04;97.37;98365.69;5051799;28;20393;-80
2022/12/24 09:49:01;;;;;;;16.00;5.70;;;;;;;7.04;97.71;98370.19;5052543;28;20373;-79
2022/12/24 09:51:42;;;;;;;12.15;6.07;;;;;;;7.17;96.26;98370.72;5052778;28;20027;-80
2022/12/24 09:54:20;;;;;;;19.65;5.72;;;;;;;6.97;97.31;98365.00;5033882;28;20040;-80
2022/12/24 09:56:47;;;;;;;15.45;5.95;;;;;;;6.97;98.49;98370.31;5049760;28;20389;-80
2022/12/24 09:59:21;;;;;;;10.18;4.60;;;;;;;6.96;98.80;98370.56;5049806;28;20028;-80
2022/12/24 10:01:49;;;;;;;10.98;6.05;;;;;;;6.99;98.07;98370.88;5050241;28;20037;-80
2022/12/24 10:04:18;;;;;;;12.00;4.90;;;;;;;7.06;97.87;98384.00;5048752;28;20022;-80
2022/12/24 10:06:53;;;;;;;16.80;6.07;;;;;;;7.10;97.64;98371.91;5044449;28;20036;-80
2022/12/24 10:09:34;;;;;;;19.70;5.78;;;;;;;7.13;97.54;98384.69;5051272;28;20086;-80
2022/12/24 10:12:07;;;;;;;17.23;6.57;;;;;;;7.19;97.95;98381.88;5064883;28;20052;-80
2022/12/24 10:14:51;;;;;;;12.57;6.03;;;;;;;7.12;97.67;98375.13;5045917;28;20035;-80
2022/12/24 10:17:25;;;;;;;8.90;5.85;;;;;;;7.11;97.31;98381.47;5044284;28;20029;-80
2022/12/24 10:20:22;;;;;;;11.32;5.82;;;;;;;7.24;97.11;98384.63;5049495;28;20028;-80
2022/12/24 10:23:12;;;;;;;23.85;7.20;;;;;;;7.25;97.04;98391.53;5045516;28;20052;-81
2022/12/24 10:26:00;;;;;;;17.25;5.25;;;;;;;7.18;97.03;98376.81;5051178;28;20029;-81
2022/12/24 10:28:33;;;;;;;9.38;5.82;;;;;;;7.30;96.72;98388.19;5049736;28;20040;-81
2022/12/24 10:31:03;;;;;;;12.18;6.32;;;;;;;7.29;97.18;98382.09;5049641;28;20060;-81
2022/12/24 10:33:35;;;;;;;14.80;5.88;;;;;;;7.21;96.77;98382.44;5043083;28;20029;-81
2022/12/24 10:36:00;;;;;;;10.32;5.65;;;;;;;7.33;96.85;98380.56;5050783;28;20166;-81
2022/12/24 10:38:25;;;;;;;14.50;5.82;;;;;;;7.38;96.57;98388.59;5042489;28;20519;-81
2022/12/24 10:40:54;;;;;;;18.92;5.57;;;;;;;7.37;97.05;98394.16;5034210;28;20029;-81
2022/12/24 10:43:23;;;;;;;8.57;5.38;;;;;;;7.38;96.39;98393.13;5052166;28;20043;-81
2022/12/24 10:45:59;;;;;;;13.20;5.55;;;;;;;7.22;97.92;98386.72;5039828;28;20033;-81
2022/12/24 10:48:39;;;;;;;10.48;5.72;;;;;;;7.36;96.93;98414.56;5049795;28;20523;-81
2022/12/24 10:51:14;;;;;;;13.82;5.60;;;;;;;7.43;96.67;98409.94;5050956;28;20060;-81
2022/12/24 10:53:47;;;;;;;11.52;6.10;;;;;;;7.44;97.06;98410.75;5048217;28;20025;-80
2022/12/24 10:56:15;;;;;;;8.18;5.47;;;;;;;7.48;96.00;98406.56;5048900;28;20032;-80
2022/12/24 10:58:53;;;;;;;14.00;5.97;;;;;;;7.54;95.78;98411.72;5032499;28;20032;-80
2022/12/24 11:01:38;;;;;;;12.18;5.47;;;;;;;7.45;96.40;98409.69;5050042;28;20032;-80
2022/12/24 11:04:04;;;;;;;15.80;6.07;;;;;;;7.52;96.03;98424.44;5036432;28;20071;-80
2022/12/24 11:06:29;;;;;;;18.60;5.70;;;;;;;7.53;95.63;98417.28;5050145;28;20064;-81
2022/12/24 11:09:19;;;;;;;12.88;6.38;;;;;;;7.50;95.96;98426.53;5051800;28;20419;-80
2022/12/24 11:11:44;;;;;;;15.95;6.28;;;;;;;7.53;96.19;98434.00;5051652;28;20144;-80
2022/12/24 11:14:15;;;;;;;9.18;4.70;;;;;;;7.51;96.13;98433.44;5032479;28;20061;-80
2022/12/24 11:16:49;;;;;;;13.73;5.85;;;;;;;7.47;96.42;98424.34;5051567;28;20113;-80
2022/12/24 11:19:17;;;;;;;16.77;5.70;;;;;;;7.50;96.26;98425.72;5049863;28;20028;-80
2022/12/24 11:21:43;;;;;;;20.58;5.63;;;;;;;7.56;95.45;98436.19;5032193;28;20025;-80
2022/12/24 11:24:11;;;;;;;12.43;5.50;;;;;;;7.44;96.37;98431.97;5049452;28;20393;-81
2022/12/24 11:26:38;;;;;;;12.93;5.32;;;;;;;7.50;96.03;98431.03;5046947;28;20433;-80
2022/12/24 11:29:15;;;;;;;17.75;6.68;;;;;;;7.57;96.01;98424.53;5050304;28;20029;-81
2022/12/24 11:31:45;;;;;;;12.20;6.07;;;;;;;7.41;96.97;98441.22;5052386;28;20055;-81
2022/12/24 11:34:27;;;;;;;14.27;6.30;;;;;;;7.47;97.19;98434.16;5045190;28;20037;-80
2022/12/24 11:37:14;;;;;;;11.73;6.50;;;;;;;7.46;97.07;98427.25;5050400;28;20198;-80
2022/12/24 11:39:44;;;;;;;15.52;5.93;;;;;;;7.45;97.96;98418.47;5043963;28;20045;-80
2022/12/24 11:42:28;;;;;;;18.23;6.10;;;;;;;7.45;97.62;98417.66;5047926;28;20481;-80
2022/12/24 11:44:55;;;;;;;15.80;5.97;;;;;;;7.59;97.66;98424.28;5034525;28;20080;-80
2022/12/24 11:47:37;;;;;;;9.65;6.07;;;;;;;7.56;97.92;98420.25;5050153;28;20040;-80
2022/12/24 11:50:37;;;;;;;13.18;6.63;;;;;;;7.54;96.73;98414.38;5050964;28;20115;-81